Time;durP1;ratioP1;P1;durP2;ratioP2;P2;SDS_P1;SDS_P2;PMS_P1;PMS_P2;Temp;Humidity;BMP_temperature;BMP_pressure;BME280_temperature;BME280_humidity;BME280_pressure;Samples;Min_cycle;Max_cycle;Signal;HPM_P1;HPM_P2
2020/12/26 00:02:18;;;;;;;3.27;2.97;;;0.10;99.90;;;;;;4938461;29;20197;-79
2020/12/26 00:04:44;;;;;;;3.87;3.07;;;0.00;99.90;;;;;;4939723;29;20288;-79
2020/12/26 00:07:10;;;;;;;3.20;2.90;;;0.10;99.90;;;;;;4939947;29;20185;-78
2020/12/26 00:09:36;;;;;;;3.73;2.83;;;0.10;99.90;;;;;;4942120;29;20208;-79
2020/12/26 00:12:02;;;;;;;11.07;7.73;;;0.10;99.90;;;;;;4943332;29;20256;-79
2020/12/26 00:14:28;;;;;;;5.47;3.53;;;0.00;99.90;;;;;;4943604;29;20212;-79
2020/12/26 00:16:58;;;;;;;3.17;2.80;;;0.10;99.90;;;;;;4943191;29;20226;-79
2020/12/26 00:19:24;;;;;;;4.57;3.27;;;0.10;99.90;;;;;;4943521;29;20252;-79
2020/12/26 00:21:50;;;;;;;3.07;2.83;;;0.00;99.90;;;;;;4942908;29;20233;-79
2020/12/26 00:24:16;;;;;;;3.03;2.83;;;0.00;99.90;;;;;;4944162;29;20185;-79
2020/12/26 00:26:42;;;;;;;3.37;3.07;;;0.00;99.90;;;;;;4943788;29;20217;-79
2020/12/26 00:29:09;;;;;;;2.23;2.13;;;-0.10;99.90;;;;;;4943726;29;20225;-78
2020/12/26 00:31:35;;;;;;;3.40;3.10;;;-0.20;99.90;;;;;;4943277;29;20232;-78
2020/12/26 00:34:01;;;;;;;3.23;2.90;;;-0.40;99.90;;;;;;4942505;29;20210;-79
2020/12/26 00:36:27;;;;;;;3.37;3.07;;;-0.40;99.90;;;;;;4942140;29;20205;-79
2020/12/26 00:38:53;;;;;;;3.20;2.90;;;-0.50;99.90;;;;;;4941899;29;20199;-78
2020/12/26 00:41:19;;;;;;;3.30;3.00;;;-0.40;99.90;;;;;;4942861;29;20184;-79
2020/12/26 00:43:44;;;;;;;3.07;2.73;;;-0.40;99.90;;;;;;4942950;29;20267;-79
2020/12/26 00:46:11;;;;;;;2.97;2.73;;;-0.40;99.90;;;;;;4942517;29;20227;-78
2020/12/26 00:48:37;;;;;;;3.17;2.80;;;-0.50;99.90;;;;;;4943097;29;20229;-78
2020/12/26 00:51:03;;;;;;;3.43;2.73;;;-0.50;99.90;;;;;;4943333;29;20200;-79
2020/12/26 00:53:29;;;;;;;2.70;2.50;;;-0.40;99.90;;;;;;4940925;29;20189;-79
2020/12/26 00:55:55;;;;;;;2.73;2.53;;;-0.40;99.90;;;;;;4941896;29;20292;-79
2020/12/26 00:58:21;;;;;;;3.60;2.67;;;-0.50;99.90;;;;;;4942147;29;20290;-79
2020/12/26 01:00:47;;;;;;;2.87;2.67;;;-0.60;99.90;;;;;;4941609;29;20252;-79
2020/12/26 01:03:13;;;;;;;3.73;2.63;;;-0.70;99.90;;;;;;4941646;29;20298;-79
2020/12/26 01:05:38;;;;;;;4.00;3.60;;;-0.80;99.90;;;;;;4941612;29;20208;-79
2020/12/26 01:08:04;;;;;;;3.17;2.97;;;-0.90;99.90;;;;;;4941268;29;20208;-79
2020/12/26 01:10:29;;;;;;;5.13;3.57;;;-0.80;99.90;;;;;;4941711;29;20177;-79
2020/12/26 01:12:55;;;;;;;4.63;4.17;;;-0.70;99.90;;;;;;4939803;29;20196;-79
2020/12/26 01:15:21;;;;;;;4.37;3.30;;;-0.60;99.90;;;;;;4939739;29;20683;-79
2020/12/26 01:17:47;;;;;;;3.00;2.70;;;-0.70;99.90;;;;;;4941281;29;20185;-79
2020/12/26 01:20:13;;;;;;;3.23;2.93;;;-0.70;99.90;;;;;;4940400;29;20185;-79
2020/12/26 01:22:38;;;;;;;2.93;2.70;;;-0.80;99.90;;;;;;4940736;29;20185;-79
2020/12/26 01:25:07;;;;;;;2.90;2.70;;;-0.80;99.90;;;;;;4941981;29;20700;-79
2020/12/26 01:27:36;;;;;;;3.40;2.80;;;-0.80;99.90;;;;;;4943775;29;20201;-79
2020/12/26 01:30:02;;;;;;;2.80;2.60;;;-0.90;99.90;;;;;;4942155;29;20208;-79
2020/12/26 01:32:28;;;;;;;2.90;2.47;;;-1.00;99.90;;;;;;4942115;29;20192;-79
2020/12/26 01:34:59;;;;;;;3.33;3.03;;;-1.10;99.90;;;;;;4942322;29;20219;-79
2020/12/26 01:37:25;;;;;;;2.40;2.20;;;-1.20;99.90;;;;;;4942462;29;20180;-79
2020/12/26 01:39:51;;;;;;;3.13;2.87;;;-1.20;99.90;;;;;;4941469;29;20260;-78
2020/12/26 01:42:17;;;;;;;3.50;3.20;;;-1.10;99.90;;;;;;4941864;29;20181;-79
2020/12/26 01:44:43;;;;;;;3.50;3.10;;;-1.10;99.90;;;;;;4941747;29;20221;-79
2020/12/26 01:47:11;;;;;;;3.33;2.87;;;-1.20;99.90;;;;;;4941169;29;20205;-79
2020/12/26 01:49:37;;;;;;;3.40;2.80;;;-1.20;99.90;;;;;;4941020;29;20205;-78
2020/12/26 01:52:03;;;;;;;3.77;3.33;;;-1.20;99.90;;;;;;4939940;29;20655;-79
2020/12/26 01:54:29;;;;;;;3.63;2.97;;;-1.20;99.90;;;;;;4940746;29;20738;-78
2020/12/26 01:56:57;;;;;;;3.40;2.97;;;-1.30;99.90;;;;;;4941474;29;20226;-79
2020/12/26 01:59:22;;;;;;;3.63;3.00;;;-1.30;99.90;;;;;;4940779;29;20177;-79
2020/12/26 02:01:52;;;;;;;3.47;2.90;;;-1.30;99.90;;;;;;4940794;29;20184;-79
2020/12/26 02:04:18;;;;;;;2.80;2.50;;;-1.40;99.90;;;;;;4940934;29;20653;-79
2020/12/26 02:06:50;;;;;;;3.77;3.07;;;-1.40;99.90;;;;;;4939367;29;20319;-79
2020/12/26 02:09:16;;;;;;;4.07;2.77;;;-1.40;99.90;;;;;;4941179;29;20205;-79
2020/12/26 02:11:42;;;;;;;2.90;2.57;;;-1.50;99.90;;;;;;4941195;29;20182;-79
2020/12/26 02:14:08;;;;;;;7.87;3.43;;;-1.50;99.90;;;;;;4941218;29;20209;-79
2020/12/26 02:16:46;;;;;;;4.83;3.50;;;-1.50;99.90;;;;;;4940379;29;20180;-79
2020/12/26 02:19:13;;;;;;;3.97;3.57;;;-1.50;99.90;;;;;;4940295;29;20180;-79
2020/12/26 02:21:40;;;;;;;3.50;3.00;;;-1.60;99.90;;;;;;4940242;29;20192;-79
2020/12/26 02:24:06;;;;;;;3.30;3.00;;;-1.60;99.90;;;;;;4938580;29;20212;-79
2020/12/26 02:26:32;;;;;;;4.70;3.50;;;-1.60;99.90;;;;;;4938371;29;20217;-79
2020/12/26 02:28:58;;;;;;;3.80;3.50;;;-1.50;99.90;;;;;;4939490;29;20204;-79
2020/12/26 02:31:23;;;;;;;5.13;4.00;;;-1.40;99.90;;;;;;4939727;29;20641;-78
2020/12/26 02:33:50;;;;;;;6.33;4.50;;;-1.40;99.90;;;;;;4939443;29;20177;-79
2020/12/26 02:36:16;;;;;;;7.10;4.60;;;-1.40;99.90;;;;;;4939627;29;20200;-79
2020/12/26 02:38:42;;;;;;;6.93;5.27;;;-1.30;99.90;;;;;;4938990;29;20185;-79
2020/12/26 02:41:08;;;;;;;7.30;5.90;;;-1.30;99.90;;;;;;4939037;29;20193;-79
2020/12/26 02:43:34;;;;;;;5.37;4.77;;;-1.20;99.90;;;;;;4939075;29;20196;-79
2020/12/26 02:46:00;;;;;;;5.33;4.10;;;-1.20;99.90;;;;;;4939611;29;20205;-79
2020/12/26 02:48:26;;;;;;;4.43;4.03;;;-1.20;99.90;;;;;;4938115;29;20209;-79
2020/12/26 02:50:52;;;;;;;4.30;3.90;;;-1.10;99.90;;;;;;4933065;29;20185;-79
2020/12/26 02:53:19;;;;;;;4.47;4.07;;;-1.10;99.90;;;;;;4931076;29;20177;-79
2020/12/26 02:55:44;;;;;;;4.27;3.80;;;-1.10;99.90;;;;;;4937802;29;20232;-78
2020/12/26 02:58:10;;;;;;;4.33;3.87;;;-1.00;99.90;;;;;;4938449;29;20188;-79
2020/12/26 03:00:36;;;;;;;4.37;3.97;;;-1.00;99.90;;;;;;4939673;29;20261;-79
2020/12/26 03:03:02;;;;;;;5.07;4.57;;;-1.10;99.90;;;;;;4938305;29;20205;-79
2020/12/26 03:05:27;;;;;;;12.60;6.20;;;-1.10;99.90;;;;;;4937974;29;20206;-79
2020/12/26 03:07:53;;;;;;;5.30;3.67;;;-1.20;99.90;;;;;;4937330;29;20573;-79
2020/12/26 03:10:19;;;;;;;4.90;4.20;;;-1.20;99.90;;;;;;4939089;29;20170;-79
2020/12/26 03:12:45;;;;;;;5.70;3.97;;;-1.20;99.90;;;;;;4939657;29;20200;-78
2020/12/26 03:15:11;;;;;;;4.53;4.03;;;-1.20;99.90;;;;;;4939308;29;20210;-79
2020/12/26 03:17:37;;;;;;;4.03;3.60;;;-1.20;99.90;;;;;;4939761;29;20265;-78
2020/12/26 03:20:04;;;;;;;4.30;3.73;;;-1.20;99.90;;;;;;4939573;29;20212;-78
2020/12/26 03:22:31;;;;;;;4.93;4.20;;;-1.20;99.90;;;;;;4939799;29;20748;-78
2020/12/26 03:24:57;;;;;;;3.97;3.53;;;-1.20;99.90;;;;;;4938370;29;20244;-79
2020/12/26 03:27:24;;;;;;;4.17;3.50;;;-1.20;99.90;;;;;;4939042;29;20188;-79
2020/12/26 03:29:51;;;;;;;4.07;3.67;;;-1.20;99.90;;;;;;4939277;29;20280;-79
2020/12/26 03:32:17;;;;;;;4.00;3.60;;;-1.20;99.90;;;;;;4939503;29;20562;-79
2020/12/26 03:34:43;;;;;;;4.10;3.47;;;-1.20;99.90;;;;;;4939573;29;20204;-79
2020/12/26 03:37:09;;;;;;;6.43;4.50;;;-1.20;99.90;;;;;;4937501;29;20176;-79
2020/12/26 03:39:35;;;;;;;4.50;4.00;;;-1.30;99.90;;;;;;4939309;29;20192;-79
2020/12/26 03:42:09;;;;;;;4.07;3.67;;;-1.30;99.90;;;;;;4938910;29;20181;-79
2020/12/26 03:44:36;;;;;;;3.87;3.27;;;-1.30;99.90;;;;;;4941253;29;20213;-79
2020/12/26 03:47:05;;;;;;;4.57;4.07;;;-1.30;99.90;;;;;;4943601;29;20261;-79
2020/12/26 03:49:31;;;;;;;4.83;3.70;;;-1.00;99.90;;;;;;4942924;29;20194;-79
2020/12/26 03:51:57;;;;;;;6.23;4.20;;;-1.40;99.90;;;;;;4943644;29;20181;-79
2020/12/26 03:54:23;;;;;;;5.33;3.90;;;-1.40;99.90;;;;;;4943713;29;20188;-79
2020/12/26 03:56:49;;;;;;;4.93;4.17;;;-1.40;99.90;;;;;;4942876;29;20180;-79
2020/12/26 03:59:15;;;;;;;6.23;3.40;;;-1.40;99.90;;;;;;4942168;29;20188;-79
2020/12/26 04:01:41;;;;;;;4.47;3.33;;;-1.40;99.90;;;;;;4941319;29;20185;-78
2020/12/26 04:04:07;;;;;;;3.83;3.43;;;-1.50;99.90;;;;;;4941206;29;20189;-79
2020/12/26 04:06:33;;;;;;;4.10;3.70;;;-1.60;99.90;;;;;;4941129;29;20716;-78
2020/12/26 04:08:59;;;;;;;4.17;3.77;;;-1.70;99.90;;;;;;4942393;29;20208;-78
2020/12/26 04:11:25;;;;;;;5.63;3.90;;;-1.90;99.90;;;;;;4940142;29;20239;-78
2020/12/26 04:13:51;;;;;;;7.07;4.00;;;-2.00;99.90;;;;;;4940800;29;20269;-78
2020/12/26 04:16:19;;;;;;;3.47;3.03;;;-2.10;99.90;;;;;;4942353;29;20214;-78
2020/12/26 04:18:45;;;;;;;5.77;3.87;;;-2.20;99.90;;;;;;4941287;29;20690;-78
2020/12/26 04:21:10;;;;;;;5.40;4.90;;;-2.30;99.90;;;;;;4940073;29;20182;-78
2020/12/26 04:23:36;;;;;;;3.57;3.27;;;-2.40;99.90;;;;;;4941771;29;20182;-79
2020/12/26 04:26:03;;;;;;;4.60;3.50;;;-2.40;99.90;;;;;;4941563;29;20681;-78
2020/12/26 04:28:29;;;;;;;3.80;3.40;;;-2.30;99.90;;;;;;4941389;29;20201;-78
2020/12/26 04:30:55;;;;;;;4.07;3.67;;;-2.20;99.90;;;;;;4941803;29;20174;-78
2020/12/26 04:33:21;;;;;;;5.10;3.50;;;-2.10;99.90;;;;;;4939867;29;20260;-78
2020/12/26 04:35:47;;;;;;;4.20;3.57;;;-2.10;99.90;;;;;;4941472;29;20200;-78
2020/12/26 04:38:12;;;;;;;3.80;3.40;;;-2.20;99.90;;;;;;4941220;29;20186;-78
2020/12/26 04:40:39;;;;;;;5.40;3.53;;;-2.40;99.90;;;;;;4939835;29;20234;-78
2020/12/26 04:43:06;;;;;;;3.40;3.10;;;-2.40;99.90;;;;;;4941393;29;20179;-78
2020/12/26 04:45:33;;;;;;;3.83;3.50;;;-2.30;99.90;;;;;;4940067;29;20649;-78
2020/12/26 04:48:07;;;;;;;3.83;3.43;;;-2.30;99.90;;;;;;4940597;29;20186;-78
2020/12/26 04:50:34;;;;;;;3.80;3.23;;;-2.20;99.90;;;;;;4940038;29;20211;-78
2020/12/26 04:53:03;;;;;;;4.10;3.70;;;-2.30;99.90;;;;;;4940345;29;20184;-78
2020/12/26 04:55:33;;;;;;;5.40;3.67;;;-2.30;99.90;;;;;;4940444;29;20207;-78
2020/12/26 04:58:06;;;;;;;3.70;3.37;;;-2.40;99.90;;;;;;4938961;29;20596;-78
2020/12/26 05:00:33;;;;;;;4.93;3.70;;;-2.40;99.90;;;;;;4936416;29;20273;-78
2020/12/26 05:03:10;;;;;;;5.43;4.03;;;-2.40;99.90;;;;;;4930934;29;20262;-78
2020/12/26 05:05:41;;;;;;;5.27;3.67;;;-2.50;99.90;;;;;;4931192;29;20262;-78
2020/12/26 05:08:12;;;;;;;4.87;3.60;;;-2.40;99.90;;;;;;4939636;29;20957;-78
2020/12/26 05:10:40;;;;;;;4.70;4.00;;;-2.40;99.90;;;;;;4939106;29;20596;-78
2020/12/26 05:13:10;;;;;;;6.73;4.17;;;-2.30;99.90;;;;;;4938431;29;20587;-78
2020/12/26 05:15:36;;;;;;;4.57;3.77;;;-2.20;99.90;;;;;;4939054;29;20703;-78
2020/12/26 05:18:02;;;;;;;4.60;4.03;;;-2.30;99.90;;;;;;4939298;29;20257;-78
2020/12/26 05:20:28;;;;;;;5.23;4.20;;;-2.20;99.90;;;;;;4939774;29;20174;-78
2020/12/26 05:23:09;;;;;;;5.60;3.70;;;-2.10;99.90;;;;;;4938611;29;20183;-78
2020/12/26 05:25:42;;;;;;;5.57;4.23;;;-2.10;99.90;;;;;;4939906;29;20193;-78
2020/12/26 05:28:19;;;;;;;5.60;4.27;;;-2.00;99.90;;;;;;4940025;29;20180;-78
2020/12/26 05:30:47;;;;;;;4.83;4.30;;;-1.90;99.90;;;;;;4940146;29;20176;-78
2020/12/26 05:33:13;;;;;;;5.87;4.47;;;-1.80;99.90;;;;;;4939608;29;20190;-78
2020/12/26 05:35:50;;;;;;;5.93;4.27;;;-1.80;99.90;;;;;;4938462;29;20202;-78
2020/12/26 05:38:22;;;;;;;4.37;3.97;;;-1.70;99.90;;;;;;4939057;29;20179;-78
2020/12/26 05:40:52;;;;;;;5.53;4.53;;;-1.70;99.90;;;;;;4940114;29;20191;-78
2020/12/26 05:43:24;;;;;;;5.77;4.70;;;-1.70;99.90;;;;;;4940194;29;20650;-78
2020/12/26 05:45:50;;;;;;;6.43;4.27;;;-1.70;99.90;;;;;;4939894;29;20227;-78
2020/12/26 05:48:18;;;;;;;4.87;4.37;;;-1.80;99.90;;;;;;4939808;29;20314;-78
2020/12/26 05:50:45;;;;;;;4.87;4.37;;;-1.80;99.90;;;;;;4940127;29;20271;-78
2020/12/26 05:53:15;;;;;;;5.33;4.43;;;-1.80;99.90;;;;;;4940119;29;20230;-78
2020/12/26 05:55:43;;;;;;;6.00;4.33;;;-1.70;99.90;;;;;;4940159;29;20202;-78
2020/12/26 05:58:11;;;;;;;5.13;4.53;;;-1.70;99.90;;;;;;4940472;29;20171;-78
2020/12/26 06:00:38;;;;;;;5.63;4.80;;;-1.70;99.90;;;;;;4939825;29;20174;-78
2020/12/26 06:03:23;;;;;;;5.47;4.97;;;-1.70;99.90;;;;;;4939686;29;20175;-78
2020/12/26 06:05:50;;;;;;;5.33;4.57;;;-1.70;99.90;;;;;;4939574;29;20294;-78
2020/12/26 06:08:16;;;;;;;5.20;4.60;;;-1.80;99.90;;;;;;4939530;29;20202;-78
2020/12/26 06:10:57;;;;;;;5.10;4.33;;;-1.70;99.90;;;;;;4938741;29;20201;-78
2020/12/26 06:13:25;;;;;;;5.27;4.33;;;-1.60;99.90;;;;;;4939279;29;20172;-78
2020/12/26 06:16:08;;;;;;;4.90;4.33;;;-1.70;99.90;;;;;;4939333;29;20222;-78
2020/12/26 06:18:46;;;;;;;4.53;4.13;;;-1.70;99.90;;;;;;4940150;29;20183;-78
2020/12/26 06:21:12;;;;;;;4.77;4.37;;;-1.60;99.90;;;;;;4939641;29;20311;-78
2020/12/26 06:23:40;;;;;;;4.93;4.43;;;-1.50;99.90;;;;;;4940423;29;20590;-78
2020/12/26 06:26:06;;;;;;;6.97;4.70;;;-1.50;99.90;;;;;;4940534;29;20228;-79
2020/12/26 06:28:33;;;;;;;5.80;5.13;;;-1.40;99.90;;;;;;4940103;29;20229;-79
2020/12/26 06:31:09;;;;;;;5.77;5.00;;;-1.40;99.90;;;;;;4940321;29;20193;-78
2020/12/26 06:33:42;;;;;;;7.87;5.20;;;-1.40;99.90;;;;;;4939269;29;20591;-79
2020/12/26 06:36:09;;;;;;;6.77;5.63;;;-1.40;99.90;;;;;;4939331;29;20211;-79
2020/12/26 06:38:35;;;;;;;5.60;4.67;;;-1.40;99.90;;;;;;4937617;29;20648;-79
2020/12/26 06:41:01;;;;;;;7.73;5.80;;;-1.40;99.90;;;;;;4938220;29;20678;-79
2020/12/26 06:43:42;;;;;;;5.87;5.00;;;-1.40;99.90;;;;;;4938576;29;20599;-79
2020/12/26 06:46:14;;;;;;;7.43;4.80;;;-1.40;99.90;;;;;;4937804;29;20219;-79
2020/12/26 06:48:41;;;;;;;5.27;4.77;;;-1.30;99.90;;;;;;4938199;29;20216;-78
2020/12/26 06:51:30;;;;;;;6.33;5.43;;;-1.30;99.90;;;;;;4938092;29;20191;-78
2020/12/26 06:54:08;;;;;;;8.00;5.47;;;-1.20;99.90;;;;;;4934698;29;20549;-79
2020/12/26 06:56:34;;;;;;;6.43;5.57;;;-1.20;99.90;;;;;;4937926;29;20251;-79
2020/12/26 06:59:07;;;;;;;7.70;4.83;;;-1.20;99.90;;;;;;4938264;29;20198;-79
2020/12/26 07:01:34;;;;;;;4.97;4.33;;;-1.20;99.90;;;;;;4937613;29;20185;-79
2020/12/26 07:04:19;;;;;;;4.93;4.43;;;-1.30;99.90;;;;;;4938096;29;20193;-78
2020/12/26 07:06:53;;;;;;;6.63;5.07;;;-1.30;99.90;;;;;;4937809;29;20654;-78
2020/12/26 07:09:39;;;;;;;4.97;4.47;;;-1.20;99.90;;;;;;4937402;29;20292;-78
2020/12/26 07:12:09;;;;;;;4.73;4.23;;;-1.20;99.90;;;;;;4937800;29;20171;-78
2020/12/26 07:14:38;;;;;;;6.50;5.33;;;-1.10;99.90;;;;;;4937849;29;20194;-78
2020/12/26 07:17:25;;;;;;;22.37;12.70;;;-1.20;99.90;;;;;;4938004;29;20526;-78
2020/12/26 07:19:52;;;;;;;26.13;14.50;;;-1.20;99.90;;;;;;4937003;29;20263;-78
2020/12/26 07:22:29;;;;;;;28.57;14.90;;;-1.20;99.90;;;;;;4937808;29;20191;-78
2020/12/26 07:25:08;;;;;;;12.90;8.23;;;-1.30;99.90;;;;;;4937816;29;20203;-78
2020/12/26 07:27:39;;;;;;;6.30;5.10;;;-1.30;99.90;;;;;;4936920;29;20597;-78
2020/12/26 07:30:09;;;;;;;6.93;5.30;;;-1.30;99.90;;;;;;4937822;29;20575;-78
2020/12/26 07:32:37;;;;;;;7.90;6.10;;;-1.30;99.90;;;;;;4937554;29;20180;-78
2020/12/26 07:35:13;;;;;;;35.27;17.10;;;-1.30;99.90;;;;;;4937649;29;20690;-78
2020/12/26 07:37:43;;;;;;;9.57;6.57;;;-1.30;99.90;;;;;;4937900;29;20677;-79
2020/12/26 07:40:15;;;;;;;4.70;4.20;;;-1.20;99.90;;;;;;4937832;29;20215;-78
2020/12/26 07:42:43;;;;;;;5.00;4.50;;;-1.20;99.90;;;;;;4938256;29;20179;-78
2020/12/26 07:45:13;;;;;;;10.63;6.83;;;-1.10;99.90;;;;;;4938137;29;20226;-78
2020/12/26 07:47:52;;;;;;;56.13;28.77;;;-1.20;99.90;;;;;;4938176;29;20211;-78
2020/12/26 07:50:23;;;;;;;7.83;6.40;;;-1.10;99.90;;;;;;4938100;29;20280;-78
2020/12/26 07:52:55;;;;;;;5.93;5.30;;;-1.10;99.90;;;;;;4936669;29;20653;-77
2020/12/26 07:55:21;;;;;;;6.40;4.47;;;-1.10;99.90;;;;;;4937528;29;20697;-78
2020/12/26 07:57:48;;;;;;;5.00;4.50;;;-1.20;99.90;;;;;;4935771;29;20670;-78
2020/12/26 08:00:24;;;;;;;5.83;4.30;;;-1.10;99.90;;;;;;4922257;29;20191;-78
2020/12/26 08:02:55;;;;;;;6.30;5.10;;;-1.10;99.90;;;;;;4933707;29;20311;-78
2020/12/26 08:05:31;;;;;;;7.13;5.30;;;-1.00;99.90;;;;;;4938016;29;20209;-78
2020/12/26 08:07:58;;;;;;;6.30;5.70;;;-0.90;99.90;;;;;;4932914;29;20663;-78
2020/12/26 08:10:24;;;;;;;6.47;5.27;;;-0.90;99.90;;;;;;4938784;29;20181;-78
2020/12/26 08:12:55;;;;;;;8.27;6.37;;;-0.90;99.90;;;;;;4933828;29;20213;-78
2020/12/26 08:15:31;;;;;;;8.17;5.23;;;-0.90;99.90;;;;;;4939282;29;20732;-78
2020/12/26 08:18:00;;;;;;;4.63;4.13;;;-1.00;99.90;;;;;;4938364;29;20184;-78
2020/12/26 08:20:27;;;;;;;7.23;4.77;;;-1.00;99.90;;;;;;4946012;29;20237;-79
2020/12/26 08:22:53;;;;;;;5.03;4.53;;;-1.10;99.90;;;;;;4947968;29;20848;-78
2020/12/26 08:25:22;;;;;;;5.30;4.73;;;-1.20;99.90;;;;;;4937683;29;20230;-78
2020/12/26 08:27:49;;;;;;;6.53;4.60;;;-1.30;99.90;;;;;;4936217;29;20266;-78
2020/12/26 08:30:18;;;;;;;5.47;4.50;;;-1.30;99.90;;;;;;4938038;29;20226;-78
2020/12/26 08:32:44;;;;;;;5.20;4.70;;;-1.40;99.90;;;;;;4940324;29;20314;-78
2020/12/26 08:35:13;;;;;;;5.70;4.97;;;-1.40;99.90;;;;;;4940126;29;20624;-78
2020/12/26 08:37:44;;;;;;;6.77;5.40;;;-1.40;99.90;;;;;;4940237;29;20543;-78
2020/12/26 08:40:15;;;;;;;6.97;5.23;;;-1.30;99.90;;;;;;4940700;29;20179;-78
2020/12/26 08:42:41;;;;;;;5.73;5.07;;;-1.10;99.90;;;;;;4938909;29;20182;-78
2020/12/26 08:45:23;;;;;;;6.23;5.17;;;-1.10;99.90;;;;;;4939694;29;20640;-79
2020/12/26 08:47:49;;;;;;;9.47;6.57;;;-1.00;99.90;;;;;;4935619;29;20184;-79
2020/12/26 08:50:15;;;;;;;8.57;7.67;;;-0.90;99.90;;;;;;4941388;29;20562;-79
2020/12/26 08:52:43;;;;;;;8.80;6.57;;;-0.80;99.90;;;;;;4942734;29;20196;-79
2020/12/26 08:55:09;;;;;;;7.33;6.17;;;-0.80;99.90;;;;;;4937479;29;20205;-79
2020/12/26 08:57:37;;;;;;;7.23;6.20;;;-0.70;99.90;;;;;;4936638;29;20180;-79
2020/12/26 09:00:20;;;;;;;7.30;6.50;;;-0.60;99.90;;;;;;4941480;29;20192;-79
2020/12/26 09:02:46;;;;;;;7.57;6.70;;;-0.50;99.90;;;;;;4941350;29;20571;-78
2020/12/26 09:05:25;;;;;;;8.77;7.27;;;-0.40;99.90;;;;;;4940517;29;20236;-79
2020/12/26 09:08:05;;;;;;;8.87;7.40;;;-0.30;99.90;;;;;;4940502;29;20651;-79
2020/12/26 09:10:33;;;;;;;8.33;6.30;;;-0.30;99.90;;;;;;4941051;29;20178;-79
2020/12/26 09:13:07;;;;;;;6.47;5.37;;;-0.20;99.90;;;;;;4928305;29;20182;-79
2020/12/26 09:15:53;;;;;;;5.33;4.83;;;-0.10;99.90;;;;;;4933958;29;20677;-79
2020/12/26 09:18:24;;;;;;;6.93;4.97;;;0.00;99.90;;;;;;4937919;29;20170;-79
2020/12/26 09:20:53;;;;;;;4.87;3.73;;;0.00;99.90;;;;;;4927484;29;20189;-79
2020/12/26 09:23:21;;;;;;;4.57;3.57;;;0.10;99.90;;;;;;4937136;29;20187;-79
2020/12/26 09:25:47;;;;;;;5.50;4.27;;;0.20;99.90;;;;;;4936887;29;20288;-80
2020/12/26 09:28:13;;;;;;;4.37;3.97;;;0.30;99.90;;;;;;4936100;29;20196;-80
2020/12/26 09:30:40;;;;;;;5.10;3.80;;;0.30;99.90;;;;;;4936536;29;20579;-80
2020/12/26 09:33:05;;;;;;;4.97;3.87;;;0.40;99.90;;;;;;4938303;29;20177;-82
2020/12/26 09:35:31;;;;;;;5.47;4.00;;;0.30;99.90;;;;;;4942698;29;20679;-81
2020/12/26 09:37:57;;;;;;;5.17;4.10;;;0.30;99.90;;;;;;4947637;28;20228;-81
2020/12/26 09:40:32;;;;;;;6.17;4.17;;;0.50;99.90;;;;;;4938560;29;20186;-82
2020/12/26 09:42:58;;;;;;;4.37;3.87;;;0.50;99.90;;;;;;4937713;29;20177;-81
2020/12/26 09:45:24;;;;;;;4.67;3.53;;;0.50;99.90;;;;;;4939865;29;20218;-81
2020/12/26 09:47:50;;;;;;;5.30;3.20;;;0.50;99.90;;;;;;4939107;29;20200;-81
2020/12/26 09:50:16;;;;;;;8.87;3.57;;;0.40;99.90;;;;;;4939598;29;20232;-81
2020/12/26 09:52:42;;;;;;;4.07;3.50;;;0.40;99.90;;;;;;4939406;29;20188;-81
2020/12/26 09:55:09;;;;;;;5.33;3.93;;;0.50;99.90;;;;;;4937857;29;20207;-81
2020/12/26 09:57:37;;;;;;;4.90;4.23;;;0.60;99.90;;;;;;4937845;29;20181;-80
2020/12/26 10:00:04;;;;;;;5.43;3.97;;;0.70;99.90;;;;;;4937323;29;20238;-81
2020/12/26 10:02:30;;;;;;;4.77;4.27;;;0.80;99.90;;;;;;4937723;29;20200;-81
2020/12/26 10:04:56;;;;;;;6.10;5.50;;;0.90;99.90;;;;;;4938655;29;20208;-81
2020/12/26 10:07:22;;;;;;;6.57;5.60;;;1.10;99.90;;;;;;4937848;29;20191;-80
2020/12/26 10:09:48;;;;;;;5.30;4.80;;;1.10;99.90;;;;;;4937474;29;20209;-79
2020/12/26 10:12:14;;;;;;;5.33;4.80;;;1.10;99.90;;;;;;4941072;29;20174;-80
2020/12/26 10:14:40;;;;;;;5.13;4.63;;;1.20;99.90;;;;;;4941447;29;20201;-80
2020/12/26 10:17:06;;;;;;;5.63;5.13;;;1.10;99.90;;;;;;4924563;29;20744;-79
2020/12/26 10:19:31;;;;;;;4.90;4.40;;;1.30;99.90;;;;;;4935291;29;20174;-79
2020/12/26 10:21:58;;;;;;;7.63;4.60;;;1.40;99.90;;;;;;4935048;29;20190;-79
2020/12/26 10:24:23;;;;;;;4.67;4.23;;;1.40;99.90;;;;;;4933397;29;20192;-79
2020/12/26 10:26:49;;;;;;;7.73;3.83;;;;;;;;;;4941552;29;20178;-78
2020/12/26 10:29:15;;;;;;;4.97;3.47;;;1.80;99.90;;;;;;4941977;29;20201;-79
2020/12/26 10:31:41;;;;;;;4.07;3.13;;;1.80;99.90;;;;;;4942265;29;20181;-79
2020/12/26 10:34:06;;;;;;;4.10;3.23;;;2.00;99.90;;;;;;4941152;29;20222;-79
2020/12/26 10:36:32;;;;;;;4.73;3.87;;;2.10;99.90;;;;;;4942267;29;20257;-79
2020/12/26 10:38:58;;;;;;;3.57;3.27;;;2.00;99.90;;;;;;4943377;29;20182;-79
2020/12/26 10:41:24;;;;;;;3.57;3.27;;;2.00;99.90;;;;;;4944858;29;20208;-79
2020/12/26 10:43:49;;;;;;;3.70;2.90;;;2.30;99.90;;;;;;4944970;29;20273;-79
2020/12/26 10:46:15;;;;;;;3.73;2.93;;;2.40;99.90;;;;;;4943549;29;20276;-79
2020/12/26 10:48:40;;;;;;;3.47;3.00;;;2.50;99.90;;;;;;4942675;29;20217;-79
2020/12/26 10:51:10;;;;;;;4.77;2.50;;;2.50;99.90;;;;;;4944841;29;20174;-79
2020/12/26 10:53:36;;;;;;;3.10;2.80;;;2.60;99.90;;;;;;4943301;29;20182;-79
2020/12/26 10:56:01;;;;;;;3.87;2.50;;;2.60;99.90;;;;;;4924465;29;20230;-79
2020/12/26 10:58:28;;;;;;;4.03;3.03;;;;;;;;;;4924603;29;20182;-79
2020/12/26 11:00:54;;;;;;;3.80;2.83;;;;;;;;;;4927284;29;20178;-80
2020/12/26 11:03:20;;;;;;;3.20;2.90;;;;;;;;;;4940078;29;20574;-80
2020/12/26 11:05:49;;;;;;;4.97;3.03;;;;;;;;;;4934088;29;20201;-79
2020/12/26 11:08:16;;;;;;;3.67;2.60;;;;;;;;;;4939170;29;20217;-79
2020/12/26 11:10:42;;;;;;;2.73;2.53;;;;;;;;;;4929991;29;20189;-80
2020/12/26 11:13:08;;;;;;;4.03;2.37;;;;;;;;;;4938807;29;20188;-80
2020/12/26 11:15:34;;;;;;;7.80;3.50;;;;;;;;;;4942493;29;20193;-80
2020/12/26 11:18:01;;;;;;;3.33;2.37;;;;;;;;;;4942285;29;20183;-80
2020/12/26 11:20:27;;;;;;;3.10;1.93;;;;;;;;;;4941624;29;20178;-79
2020/12/26 11:22:54;;;;;;;3.83;1.70;;;;;;;;;;4942076;29;20189;-80
2020/12/26 11:25:20;;;;;;;3.23;2.37;;;;;;;;;;4941360;29;20211;-80
2020/12/26 11:27:46;;;;;;;2.43;2.23;;;;;;;;;;4941384;29;20189;-80
2020/12/26 11:30:12;;;;;;;7.67;2.43;;;;;;;;;;4941230;29;20190;-80
2020/12/26 11:32:38;;;;;;;3.47;2.03;;;;;;;;;;4941257;29;20185;-80
2020/12/26 11:35:04;;;;;;;2.50;1.50;;;;;;;;;;4942512;29;20203;-80
2020/12/26 11:37:31;;;;;;;1.80;1.23;;;;;;;;;;4940993;29;20171;-80
2020/12/26 11:39:57;;;;;;;1.80;1.40;;;;;;;;;;4942455;29;20245;-80
2020/12/26 11:42:24;;;;;;;2.93;1.60;;;;;;;;;;4944772;29;20675;-80
2020/12/26 11:44:50;;;;;;;2.47;1.20;;;;;;;;;;4943988;29;20700;-80
2020/12/26 11:47:16;;;;;;;1.77;1.20;;;;;;;;;;4944151;29;20178;-79
2020/12/26 11:49:42;;;;;;;2.50;1.80;;;;;;;;;;4948502;29;20206;-80
2020/12/26 11:52:08;;;;;;;2.27;1.53;;;;;;;;;;4942826;29;20240;-78
2020/12/26 11:54:34;;;;;;;3.10;1.70;;;;;;;;;;4941337;29;20269;-79
2020/12/26 11:57:00;;;;;;;4.23;1.40;;;;;;;;;;4943023;29;20178;-79
2020/12/26 11:59:27;;;;;;;2.43;1.60;;;;;;;;;;4940880;29;20205;-79
2020/12/26 12:01:54;;;;;;;3.37;1.53;;;;;;;;;;4940801;29;20189;-79
2020/12/26 12:04:20;;;;;;;2.97;1.70;;;;;;;;;;4936280;29;20178;-79
2020/12/26 12:06:47;;;;;;;2.87;1.87;;;;;;;;;;4937113;29;20196;-80
2020/12/26 12:09:13;;;;;;;4.93;3.10;;;;;;;;;;4932402;29;20212;-80
2020/12/26 12:11:39;;;;;;;1.53;1.43;;;;;;;;;;4931319;29;20255;-80
2020/12/26 12:14:05;;;;;;;2.50;1.77;;;;;;;;;;4935183;29;20652;-80
2020/12/26 12:16:31;;;;;;;2.93;1.70;;;;;;;;;;4945065;29;20213;-79
2020/12/26 12:18:58;;;;;;;2.40;2.00;;;;;;;;;;4939745;29;20202;-80
2020/12/26 12:21:24;;;;;;;2.80;1.80;;;;;;;;;;4941420;29;20201;-79
2020/12/26 12:23:50;;;;;;;2.57;1.90;;;;;;;;;;4943702;29;20656;-79
2020/12/26 12:26:26;;;;;;;2.20;1.33;;;;;;;;;;4941880;29;20214;-79
2020/12/26 12:28:56;;;;;;;1.67;1.30;;;;;;;;;;4942175;29;20237;-80
2020/12/26 12:31:23;;;;;;;2.40;1.40;;;;;;;;;;4940999;29;20273;-80
2020/12/26 12:33:49;;;;;;;2.17;1.40;;;;;;;;;;4940414;29;20225;-79
2020/12/26 12:36:15;;;;;;;1.57;1.30;;;;;;;;;;4940476;29;20227;-79
2020/12/26 12:38:42;;;;;;;1.53;1.30;;;;;;;;;;4941428;29;20195;-79
2020/12/26 12:41:08;;;;;;;3.70;1.67;;;;;;;;;;4941539;29;20675;-79
2020/12/26 12:43:35;;;;;;;1.50;1.40;;;;;;;;;;4940633;29;20183;-80
2020/12/26 12:46:01;;;;;;;2.67;1.50;;;;;;;;;;4943111;29;20222;-80
2020/12/26 12:48:27;;;;;;;2.70;1.57;;;;;;;;;;4938927;29;20214;-80
2020/12/26 12:50:53;;;;;;;2.20;1.70;;;;;;;;;;4938863;29;20197;-80
2020/12/26 12:53:19;;;;;;;2.83;1.40;;;;;;;;;;4942476;29;20630;-79
2020/12/26 12:55:47;;;;;;;1.87;1.27;;;;;;;;;;4932598;29;20210;-79
2020/12/26 12:58:13;;;;;;;1.80;1.40;;;;;;;;;;4955820;28;20193;-79
2020/12/26 13:00:40;;;;;;;2.30;2.07;;;;;;;;;;4944552;29;20191;-79
2020/12/26 13:03:06;;;;;;;4.63;2.40;;;;;;;;;;4939502;29;20179;-79
2020/12/26 13:05:32;;;;;;;2.13;1.60;;;;;;;;;;4933136;29;20263;-80
2020/12/26 13:07:58;;;;;;;2.93;1.60;;;;;;;;;;4939141;29;20186;-79
2020/12/26 13:10:24;;;;;;;1.73;1.40;;;;;;;;;;4945266;29;20241;-79
2020/12/26 13:12:50;;;;;;;3.53;1.53;;;;;;;;;;4944064;29;20182;-79